sensor_id;sensor_type;location;lat;lon;timestamp;P1;durP1;ratioP1;P2;durP2;ratioP2
57663;SDS011;43493;53.098;6.064;2023-03-01T00:01:33;21.43;;;15.30;;
57663;SDS011;43493;53.098;6.064;2023-03-01T00:03:59;21.30;;;14.70;;
57663;SDS011;43493;53.098;6.064;2023-03-01T00:06:25;23.97;;;15.13;;
57663;SDS011;43493;53.098;6.064;2023-03-01T00:08:52;18.95;;;14.68;;
57663;SDS011;43493;53.098;6.064;2023-03-01T00:11:19;21.92;;;14.88;;
57663;SDS011;43493;53.098;6.064;2023-03-01T00:13:49;20.55;;;14.77;;
57663;SDS011;43493;53.098;6.064;2023-03-01T00:16:25;19.30;;;15.55;;
57663;SDS011;43493;53.098;6.064;2023-03-01T00:18:56;20.70;;;14.63;;
57663;SDS011;43493;53.098;6.064;2023-03-01T00:21:22;19.67;;;15.02;;
57663;SDS011;43493;53.098;6.064;2023-03-01T00:23:49;23.60;;;15.25;;
57663;SDS011;43493;53.098;6.064;2023-03-01T00:26:16;22.88;;;15.20;;
57663;SDS011;43493;53.098;6.064;2023-03-01T00:28:42;19.58;;;16.05;;
57663;SDS011;43493;53.098;6.064;2023-03-01T00:31:10;20.95;;;15.68;;
57663;SDS011;43493;53.098;6.064;2023-03-01T00:33:37;22.50;;;16.67;;
57663;SDS011;43493;53.098;6.064;2023-03-01T00:36:03;18.17;;;14.73;;
57663;SDS011;43493;53.098;6.064;2023-03-01T00:38:29;22.27;;;16.30;;
57663;SDS011;43493;53.098;6.064;2023-03-01T00:40:56;22.85;;;16.45;;
57663;SDS011;43493;53.098;6.064;2023-03-01T00:43:32;22.10;;;16.05;;
57663;SDS011;43493;53.098;6.064;2023-03-01T00:46:20;22.38;;;16.08;;
57663;SDS011;43493;53.098;6.064;2023-03-01T00:48:48;22.98;;;17.17;;
57663;SDS011;43493;53.098;6.064;2023-03-01T00:51:18;21.83;;;16.58;;
57663;SDS011;43493;53.098;6.064;2023-03-01T00:53:45;21.15;;;15.95;;
57663;SDS011;43493;53.098;6.064;2023-03-01T00:56:13;23.95;;;16.67;;
57663;SDS011;43493;53.098;6.064;2023-03-01T00:58:39;21.67;;;15.90;;
57663;SDS011;43493;53.098;6.064;2023-03-01T01:01:13;21.17;;;16.23;;
57663;SDS011;43493;53.098;6.064;2023-03-01T01:03:47;20.70;;;15.75;;
57663;SDS011;43493;53.098;6.064;2023-03-01T01:06:18;22.55;;;15.75;;
57663;SDS011;43493;53.098;6.064;2023-03-01T01:08:46;22.08;;;16.42;;
57663;SDS011;43493;53.098;6.064;2023-03-01T01:11:12;22.67;;;17.30;;
57663;SDS011;43493;53.098;6.064;2023-03-01T01:13:38;23.25;;;16.48;;
57663;SDS011;43493;53.098;6.064;2023-03-01T01:16:05;22.98;;;17.67;;
57663;SDS011;43493;53.098;6.064;2023-03-01T01:18:31;23.40;;;16.77;;
57663;SDS011;43493;53.098;6.064;2023-03-01T01:20:57;22.13;;;15.55;;
57663;SDS011;43493;53.098;6.064;2023-03-01T01:23:23;24.67;;;16.03;;
57663;SDS011;43493;53.098;6.064;2023-03-01T01:25:49;21.17;;;15.87;;
57663;SDS011;43493;53.098;6.064;2023-03-01T01:28:14;22.07;;;16.10;;
57663;SDS011;43493;53.098;6.064;2023-03-01T01:30:40;20.93;;;16.07;;
57663;SDS011;43493;53.098;6.064;2023-03-01T01:33:07;23.38;;;16.92;;
57663;SDS011;43493;53.098;6.064;2023-03-01T01:35:32;24.10;;;17.00;;
57663;SDS011;43493;53.098;6.064;2023-03-01T01:37:58;22.73;;;16.50;;
57663;SDS011;43493;53.098;6.064;2023-03-01T01:40:24;21.70;;;15.87;;
57663;SDS011;43493;53.098;6.064;2023-03-01T01:42:49;22.70;;;16.37;;
57663;SDS011;43493;53.098;6.064;2023-03-01T01:45:29;23.23;;;15.87;;
57663;SDS011;43493;53.098;6.064;2023-03-01T01:48:02;22.30;;;14.98;;
57663;SDS011;43493;53.098;6.064;2023-03-01T01:50:31;19.25;;;14.00;;
57663;SDS011;43493;53.098;6.064;2023-03-01T01:53:04;18.13;;;13.95;;
57663;SDS011;43493;53.098;6.064;2023-03-01T01:55:35;18.30;;;13.07;;
57663;SDS011;43493;53.098;6.064;2023-03-01T01:58:05;35.60;;;12.43;;
57663;SDS011;43493;53.098;6.064;2023-03-01T02:00:34;21.00;;;12.45;;
57663;SDS011;43493;53.098;6.064;2023-03-01T02:03:00;42.63;;;12.97;;
57663;SDS011;43493;53.098;6.064;2023-03-01T02:08:16;45.15;;;13.13;;
57663;SDS011;43493;53.098;6.064;2023-03-01T02:10:45;42.13;;;11.48;;
57663;SDS011;43493;53.098;6.064;2023-03-01T02:13:12;35.88;;;11.75;;
57663;SDS011;43493;53.098;6.064;2023-03-01T02:15:39;78.10;;;13.30;;
57663;SDS011;43493;53.098;6.064;2023-03-01T02:18:06;19.73;;;10.73;;
57663;SDS011;43493;53.098;6.064;2023-03-01T02:20:43;68.63;;;11.10;;
57663;SDS011;43493;53.098;6.064;2023-03-01T02:23:24;17.77;;;10.07;;
57663;SDS011;43493;53.098;6.064;2023-03-01T02:29:00;23.50;;;11.65;;
57663;SDS011;43493;53.098;6.064;2023-03-01T02:31:26;17.08;;;10.27;;
57663;SDS011;43493;53.098;6.064;2023-03-01T02:34:08;14.80;;;10.57;;
57663;SDS011;43493;53.098;6.064;2023-03-01T02:36:41;22.65;;;11.82;;
57663;SDS011;43493;53.098;6.064;2023-03-01T02:39:26;15.30;;;11.50;;
57663;SDS011;43493;53.098;6.064;2023-03-01T02:42:06;16.58;;;12.07;;
57663;SDS011;43493;53.098;6.064;2023-03-01T02:44:38;21.77;;;12.20;;
57663;SDS011;43493;53.098;6.064;2023-03-01T02:47:04;28.60;;;12.77;;
57663;SDS011;43493;53.098;6.064;2023-03-01T02:49:32;19.02;;;12.07;;
57663;SDS011;43493;53.098;6.064;2023-03-01T02:52:16;27.73;;;13.35;;
57663;SDS011;43493;53.098;6.064;2023-03-01T02:54:49;28.60;;;13.55;;
57663;SDS011;43493;53.098;6.064;2023-03-01T02:57:16;50.42;;;14.15;;
57663;SDS011;43493;53.098;6.064;2023-03-01T02:59:43;33.17;;;12.95;;
57663;SDS011;43493;53.098;6.064;2023-03-01T03:02:22;17.60;;;12.20;;
57663;SDS011;43493;53.098;6.064;2023-03-01T03:05:05;18.65;;;13.35;;
57663;SDS011;43493;53.098;6.064;2023-03-01T03:07:34;16.02;;;11.65;;
57663;SDS011;43493;53.098;6.064;2023-03-01T03:10:03;17.77;;;12.50;;
57663;SDS011;43493;53.098;6.064;2023-03-01T03:12:29;16.02;;;12.38;;
57663;SDS011;43493;53.098;6.064;2023-03-01T03:14:55;17.33;;;12.57;;
57663;SDS011;43493;53.098;6.064;2023-03-01T03:17:21;18.63;;;12.57;;
57663;SDS011;43493;53.098;6.064;2023-03-01T03:19:47;18.90;;;13.03;;
57663;SDS011;43493;53.098;6.064;2023-03-01T03:22:12;36.20;;;11.50;;
57663;SDS011;43493;53.098;6.064;2023-03-01T03:24:38;15.73;;;11.03;;
57663;SDS011;43493;53.098;6.064;2023-03-01T03:27:04;14.50;;;10.87;;
57663;SDS011;43493;53.098;6.064;2023-03-01T03:29:31;12.82;;;9.95;;
57663;SDS011;43493;53.098;6.064;2023-03-01T03:31:56;17.00;;;9.30;;
57663;SDS011;43493;53.098;6.064;2023-03-01T03:34:23;16.10;;;10.02;;
57663;SDS011;43493;53.098;6.064;2023-03-01T03:36:52;14.97;;;8.50;;
57663;SDS011;43493;53.098;6.064;2023-03-01T03:41:50;16.80;;;8.05;;
57663;SDS011;43493;53.098;6.064;2023-03-01T03:44:16;43.07;;;9.27;;
57663;SDS011;43493;53.098;6.064;2023-03-01T03:46:42;16.77;;;7.30;;
57663;SDS011;43493;53.098;6.064;2023-03-01T03:49:07;30.27;;;7.50;;
57663;SDS011;43493;53.098;6.064;2023-03-01T03:51:33;34.10;;;7.37;;
57663;SDS011;43493;53.098;6.064;2023-03-01T03:53:58;32.67;;;7.30;;
57663;SDS011;43493;53.098;6.064;2023-03-01T03:56:24;12.50;;;6.87;;
57663;SDS011;43493;53.098;6.064;2023-03-01T03:58:51;57.25;;;8.10;;
57663;SDS011;43493;53.098;6.064;2023-03-01T04:01:17;118.93;;;9.20;;
57663;SDS011;43493;53.098;6.064;2023-03-01T04:03:43;131.20;;;9.40;;
57663;SDS011;43493;53.098;6.064;2023-03-01T04:06:12;52.67;;;7.70;;
57663;SDS011;43493;53.098;6.064;2023-03-01T04:08:39;31.75;;;6.57;;
57663;SDS011;43493;53.098;6.064;2023-03-01T04:11:06;37.53;;;6.50;;
57663;SDS011;43493;53.098;6.064;2023-03-01T04:13:51;28.67;;;6.47;;
57663;SDS011;43493;53.098;6.064;2023-03-01T04:16:19;54.13;;;7.60;;
57663;SDS011;43493;53.098;6.064;2023-03-01T04:18:44;37.70;;;6.73;;
57663;SDS011;43493;53.098;6.064;2023-03-01T04:21:11;44.13;;;7.25;;
57663;SDS011;43493;53.098;6.064;2023-03-01T04:23:37;34.10;;;6.40;;
57663;SDS011;43493;53.098;6.064;2023-03-01T04:26:03;12.82;;;6.10;;
57663;SDS011;43493;53.098;6.064;2023-03-01T04:28:41;11.90;;;6.57;;
57663;SDS011;43493;53.098;6.064;2023-03-01T04:31:13;9.50;;;6.55;;
57663;SDS011;43493;53.098;6.064;2023-03-01T04:36:09;9.88;;;6.78;;
57663;SDS011;43493;53.098;6.064;2023-03-01T04:38:37;9.52;;;6.88;;
57663;SDS011;43493;53.098;6.064;2023-03-01T04:41:07;9.18;;;6.22;;
57663;SDS011;43493;53.098;6.064;2023-03-01T04:43:35;8.55;;;6.15;;
57663;SDS011;43493;53.098;6.064;2023-03-01T04:46:02;9.73;;;6.60;;
57663;SDS011;43493;53.098;6.064;2023-03-01T04:48:30;10.02;;;7.25;;
57663;SDS011;43493;53.098;6.064;2023-03-01T04:50:56;11.40;;;7.90;;
57663;SDS011;43493;53.098;6.064;2023-03-01T04:53:23;11.98;;;7.75;;
57663;SDS011;43493;53.098;6.064;2023-03-01T04:55:49;13.10;;;8.27;;
57663;SDS011;43493;53.098;6.064;2023-03-01T04:58:16;15.52;;;10.65;;
57663;SDS011;43493;53.098;6.064;2023-03-01T05:00:41;19.33;;;11.60;;
57663;SDS011;43493;53.098;6.064;2023-03-01T05:03:07;36.83;;;16.03;;
57663;SDS011;43493;53.098;6.064;2023-03-01T05:05:34;35.40;;;15.77;;
57663;SDS011;43493;53.098;6.064;2023-03-01T05:08:03;29.10;;;16.40;;
57663;SDS011;43493;53.098;6.064;2023-03-01T05:10:31;39.47;;;17.35;;
57663;SDS011;43493;53.098;6.064;2023-03-01T05:13:00;50.22;;;16.73;;
57663;SDS011;43493;53.098;6.064;2023-03-01T05:15:27;46.17;;;15.98;;
57663;SDS011;43493;53.098;6.064;2023-03-01T05:17:55;33.90;;;16.67;;
57663;SDS011;43493;53.098;6.064;2023-03-01T05:20:23;43.47;;;16.80;;
57663;SDS011;43493;53.098;6.064;2023-03-01T05:22:50;22.70;;;16.73;;
57663;SDS011;43493;53.098;6.064;2023-03-01T05:25:17;27.90;;;15.48;;
57663;SDS011;43493;53.098;6.064;2023-03-01T05:27:43;27.70;;;16.45;;
57663;SDS011;43493;53.098;6.064;2023-03-01T05:30:09;19.08;;;13.95;;
57663;SDS011;43493;53.098;6.064;2023-03-01T05:32:39;19.98;;;14.25;;
57663;SDS011;43493;53.098;6.064;2023-03-01T05:35:08;19.20;;;14.18;;
57663;SDS011;43493;53.098;6.064;2023-03-01T05:37:34;18.20;;;14.25;;
57663;SDS011;43493;53.098;6.064;2023-03-01T05:40:01;17.08;;;12.95;;
57663;SDS011;43493;53.098;6.064;2023-03-01T05:42:26;17.52;;;13.32;;
57663;SDS011;43493;53.098;6.064;2023-03-01T05:44:52;15.30;;;11.67;;
57663;SDS011;43493;53.098;6.064;2023-03-01T05:47:18;17.10;;;12.07;;
57663;SDS011;43493;53.098;6.064;2023-03-01T05:49:43;16.10;;;12.43;;
57663;SDS011;43493;53.098;6.064;2023-03-01T05:52:09;15.57;;;12.00;;
57663;SDS011;43493;53.098;6.064;2023-03-01T05:54:35;17.30;;;12.63;;
57663;SDS011;43493;53.098;6.064;2023-03-01T05:57:00;14.43;;;12.00;;
57663;SDS011;43493;53.098;6.064;2023-03-01T05:59:26;17.27;;;12.47;;
57663;SDS011;43493;53.098;6.064;2023-03-01T06:01:52;16.60;;;12.37;;
57663;SDS011;43493;53.098;6.064;2023-03-01T06:04:18;18.15;;;13.55;;
57663;SDS011;43493;53.098;6.064;2023-03-01T06:06:44;19.03;;;13.63;;
57663;SDS011;43493;53.098;6.064;2023-03-01T06:09:09;18.60;;;12.77;;
57663;SDS011;43493;53.098;6.064;2023-03-01T06:11:35;19.23;;;13.43;;
57663;SDS011;43493;53.098;6.064;2023-03-01T06:14:02;20.63;;;13.98;;
57663;SDS011;43493;53.098;6.064;2023-03-01T06:16:28;18.52;;;13.80;;
57663;SDS011;43493;53.098;6.064;2023-03-01T06:18:53;17.37;;;12.93;;
57663;SDS011;43493;53.098;6.064;2023-03-01T06:21:19;17.17;;;12.73;;
57663;SDS011;43493;53.098;6.064;2023-03-01T06:23:45;18.67;;;12.33;;
57663;SDS011;43493;53.098;6.064;2023-03-01T06:26:10;36.07;;;12.30;;
57663;SDS011;43493;53.098;6.064;2023-03-01T06:28:36;26.63;;;12.23;;
57663;SDS011;43493;53.098;6.064;2023-03-01T06:31:02;17.57;;;12.27;;
57663;SDS011;43493;53.098;6.064;2023-03-01T06:33:28;17.60;;;11.67;;
57663;SDS011;43493;53.098;6.064;2023-03-01T06:35:54;17.07;;;11.73;;
57663;SDS011;43493;53.098;6.064;2023-03-01T06:38:21;17.98;;;11.80;;
57663;SDS011;43493;53.098;6.064;2023-03-01T06:40:55;17.55;;;11.70;;
57663;SDS011;43493;53.098;6.064;2023-03-01T06:43:21;18.55;;;12.00;;
57663;SDS011;43493;53.098;6.064;2023-03-01T06:45:48;15.40;;;11.90;;
57663;SDS011;43493;53.098;6.064;2023-03-01T06:48:14;20.43;;;13.87;;
57663;SDS011;43493;53.098;6.064;2023-03-01T06:50:40;18.70;;;12.10;;
57663;SDS011;43493;53.098;6.064;2023-03-01T06:53:06;16.50;;;11.70;;
57663;SDS011;43493;53.098;6.064;2023-03-01T06:55:32;17.07;;;11.90;;
57663;SDS011;43493;53.098;6.064;2023-03-01T06:57:58;17.52;;;12.52;;
57663;SDS011;43493;53.098;6.064;2023-03-01T07:00:25;20.40;;;14.52;;
57663;SDS011;43493;53.098;6.064;2023-03-01T07:02:51;18.67;;;13.30;;
57663;SDS011;43493;53.098;6.064;2023-03-01T07:05:17;21.40;;;14.43;;
57663;SDS011;43493;53.098;6.064;2023-03-01T07:07:42;19.37;;;14.23;;
57663;SDS011;43493;53.098;6.064;2023-03-01T07:10:09;18.58;;;13.60;;
57663;SDS011;43493;53.098;6.064;2023-03-01T07:12:35;18.90;;;12.45;;
57663;SDS011;43493;53.098;6.064;2023-03-01T07:15:01;16.77;;;13.10;;
57663;SDS011;43493;53.098;6.064;2023-03-01T07:17:27;15.63;;;11.80;;
57663;SDS011;43493;53.098;6.064;2023-03-01T07:19:53;16.50;;;12.40;;
57663;SDS011;43493;53.098;6.064;2023-03-01T07:22:19;18.93;;;13.70;;
57663;SDS011;43493;53.098;6.064;2023-03-01T07:24:44;17.77;;;14.20;;
57663;SDS011;43493;53.098;6.064;2023-03-01T07:27:10;19.63;;;13.90;;
57663;SDS011;43493;53.098;6.064;2023-03-01T07:29:36;17.20;;;12.87;;
57663;SDS011;43493;53.098;6.064;2023-03-01T07:32:02;18.27;;;13.03;;
57663;SDS011;43493;53.098;6.064;2023-03-01T07:34:28;15.05;;;11.02;;
57663;SDS011;43493;53.098;6.064;2023-03-01T07:36:54;15.73;;;11.50;;
57663;SDS011;43493;53.098;6.064;2023-03-01T07:39:20;17.40;;;12.67;;
57663;SDS011;43493;53.098;6.064;2023-03-01T07:41:48;15.52;;;11.20;;
57663;SDS011;43493;53.098;6.064;2023-03-01T07:44:14;16.63;;;11.57;;
57663;SDS011;43493;53.098;6.064;2023-03-01T07:46:40;15.77;;;11.27;;
57663;SDS011;43493;53.098;6.064;2023-03-01T07:49:06;15.23;;;12.27;;
57663;SDS011;43493;53.098;6.064;2023-03-01T07:51:31;16.73;;;12.67;;
57663;SDS011;43493;53.098;6.064;2023-03-01T07:53:57;19.87;;;13.10;;
57663;SDS011;43493;53.098;6.064;2023-03-01T07:56:23;19.13;;;13.57;;
57663;SDS011;43493;53.098;6.064;2023-03-01T07:58:49;19.47;;;12.97;;
57663;SDS011;43493;53.098;6.064;2023-03-01T08:01:15;18.27;;;13.30;;
57663;SDS011;43493;53.098;6.064;2023-03-01T08:03:43;19.30;;;14.93;;
57663;SDS011;43493;53.098;6.064;2023-03-01T08:06:09;18.80;;;14.57;;
57663;SDS011;43493;53.098;6.064;2023-03-01T08:08:36;20.67;;;15.90;;
57663;SDS011;43493;53.098;6.064;2023-03-01T08:11:03;20.45;;;16.77;;
57663;SDS011;43493;53.098;6.064;2023-03-01T08:13:30;26.58;;;19.00;;
57663;SDS011;43493;53.098;6.064;2023-03-01T08:16:03;26.48;;;20.48;;
57663;SDS011;43493;53.098;6.064;2023-03-01T08:18:30;24.92;;;19.45;;
57663;SDS011;43493;53.098;6.064;2023-03-01T08:21:01;27.93;;;19.73;;
57663;SDS011;43493;53.098;6.064;2023-03-01T08:23:38;29.00;;;20.92;;
57663;SDS011;43493;53.098;6.064;2023-03-01T08:26:11;28.75;;;20.05;;
57663;SDS011;43493;53.098;6.064;2023-03-01T08:28:39;26.40;;;19.63;;
57663;SDS011;43493;53.098;6.064;2023-03-01T08:31:16;27.15;;;20.33;;
57663;SDS011;43493;53.098;6.064;2023-03-01T08:33:52;30.25;;;22.70;;
57663;SDS011;43493;53.098;6.064;2023-03-01T08:36:24;29.55;;;21.55;;
57663;SDS011;43493;53.098;6.064;2023-03-01T08:39:11;29.05;;;22.15;;
57663;SDS011;43493;53.098;6.064;2023-03-01T08:41:38;33.47;;;22.73;;
57663;SDS011;43493;53.098;6.064;2023-03-01T08:44:04;32.13;;;22.90;;
57663;SDS011;43493;53.098;6.064;2023-03-01T08:46:35;28.65;;;21.23;;
57663;SDS011;43493;53.098;6.064;2023-03-01T08:51:33;30.50;;;21.20;;
57663;SDS011;43493;53.098;6.064;2023-03-01T08:54:02;38.60;;;25.52;;
57663;SDS011;43493;53.098;6.064;2023-03-01T08:56:33;31.92;;;25.40;;
57663;SDS011;43493;53.098;6.064;2023-03-01T08:58:59;37.45;;;24.67;;
57663;SDS011;43493;53.098;6.064;2023-03-01T09:01:25;37.05;;;26.65;;
57663;SDS011;43493;53.098;6.064;2023-03-01T09:03:51;35.50;;;24.53;;
57663;SDS011;43493;53.098;6.064;2023-03-01T09:06:17;34.80;;;25.60;;
57663;SDS011;43493;53.098;6.064;2023-03-01T09:08:43;34.83;;;25.20;;
57663;SDS011;43493;53.098;6.064;2023-03-01T09:11:11;34.45;;;24.33;;
57663;SDS011;43493;53.098;6.064;2023-03-01T09:13:42;33.20;;;24.92;;
57663;SDS011;43493;53.098;6.064;2023-03-01T09:16:10;34.38;;;25.30;;
57663;SDS011;43493;53.098;6.064;2023-03-01T09:18:38;35.80;;;25.10;;
57663;SDS011;43493;53.098;6.064;2023-03-01T09:21:04;35.75;;;25.77;;
57663;SDS011;43493;53.098;6.064;2023-03-01T09:23:43;34.33;;;25.40;;
57663;SDS011;43493;53.098;6.064;2023-03-01T09:26:14;32.88;;;24.42;;
57663;SDS011;43493;53.098;6.064;2023-03-01T09:28:45;32.17;;;24.63;;
57663;SDS011;43493;53.098;6.064;2023-03-01T09:31:11;33.47;;;24.63;;
57663;SDS011;43493;53.098;6.064;2023-03-01T09:33:38;32.15;;;24.75;;
57663;SDS011;43493;53.098;6.064;2023-03-01T09:36:12;30.80;;;23.60;;
57663;SDS011;43493;53.098;6.064;2023-03-01T09:38:40;31.85;;;21.17;;
57663;SDS011;43493;53.098;6.064;2023-03-01T09:41:10;27.37;;;21.23;;
57663;SDS011;43493;53.098;6.064;2023-03-01T09:43:52;30.20;;;22.73;;
57663;SDS011;43493;53.098;6.064;2023-03-01T09:46:23;25.17;;;20.02;;
57663;SDS011;43493;53.098;6.064;2023-03-01T09:48:55;24.20;;;18.73;;
57663;SDS011;43493;53.098;6.064;2023-03-01T09:51:26;19.92;;;14.93;;
57663;SDS011;43493;53.098;6.064;2023-03-01T09:53:57;20.05;;;15.38;;
57663;SDS011;43493;53.098;6.064;2023-03-01T09:56:32;20.30;;;15.63;;
57663;SDS011;43493;53.098;6.064;2023-03-01T10:01:58;18.75;;;14.90;;
57663;SDS011;43493;53.098;6.064;2023-03-01T10:04:46;20.58;;;14.05;;
57663;SDS011;43493;53.098;6.064;2023-03-01T10:07:32;19.15;;;13.23;;
57663;SDS011;43493;53.098;6.064;2023-03-01T10:10:26;18.77;;;13.10;;
57663;SDS011;43493;53.098;6.064;2023-03-01T10:12:56;18.42;;;12.50;;
57663;SDS011;43493;53.098;6.064;2023-03-01T10:15:35;20.38;;;13.73;;
57663;SDS011;43493;53.098;6.064;2023-03-01T10:18:10;17.85;;;13.43;;
57663;SDS011;43493;53.098;6.064;2023-03-01T10:20:43;16.85;;;12.70;;
57663;SDS011;43493;53.098;6.064;2023-03-01T10:23:17;19.33;;;11.60;;
57663;SDS011;43493;53.098;6.064;2023-03-01T10:28:24;13.38;;;9.90;;
57663;SDS011;43493;53.098;6.064;2023-03-01T10:30:56;16.30;;;10.18;;
57663;SDS011;43493;53.098;6.064;2023-03-01T10:33:25;15.13;;;10.05;;
57663;SDS011;43493;53.098;6.064;2023-03-01T10:35:54;16.30;;;11.48;;
57663;SDS011;43493;53.098;6.064;2023-03-01T10:38:20;15.13;;;10.98;;
57663;SDS011;43493;53.098;6.064;2023-03-01T10:40:50;15.17;;;11.17;;
57663;SDS011;43493;53.098;6.064;2023-03-01T10:43:18;15.45;;;11.10;;
57663;SDS011;43493;53.098;6.064;2023-03-01T10:45:44;18.73;;;11.85;;
57663;SDS011;43493;53.098;6.064;2023-03-01T10:53:29;12.60;;;10.65;;
57663;SDS011;43493;53.098;6.064;2023-03-01T10:56:16;17.15;;;11.27;;
57663;SDS011;43493;53.098;6.064;2023-03-01T11:01:46;15.18;;;11.55;;
57663;SDS011;43493;53.098;6.064;2023-03-01T11:05:15;15.20;;;11.27;;
57663;SDS011;43493;53.098;6.064;2023-03-01T11:10:35;16.60;;;11.68;;
57663;SDS011;43493;53.098;6.064;2023-03-01T11:13:19;16.73;;;12.27;;
57663;SDS011;43493;53.098;6.064;2023-03-01T11:15:58;18.45;;;11.40;;
57663;SDS011;43493;53.098;6.064;2023-03-01T11:18:26;16.65;;;11.50;;
57663;SDS011;43493;53.098;6.064;2023-03-01T11:20:55;19.08;;;11.98;;
57663;SDS011;43493;53.098;6.064;2023-03-01T11:23:23;15.68;;;11.32;;
57663;SDS011;43493;53.098;6.064;2023-03-01T11:25:55;16.75;;;11.88;;
57663;SDS011;43493;53.098;6.064;2023-03-01T11:28:23;14.25;;;11.60;;
57663;SDS011;43493;53.098;6.064;2023-03-01T11:31:08;16.55;;;12.27;;
57663;SDS011;43493;53.098;6.064;2023-03-01T11:33:47;16.77;;;12.38;;
57663;SDS011;43493;53.098;6.064;2023-03-01T11:36:32;15.55;;;12.65;;
57663;SDS011;43493;53.098;6.064;2023-03-01T11:39:11;16.63;;;12.18;;
57663;SDS011;43493;53.098;6.064;2023-03-01T11:42:09;14.90;;;11.82;;
57663;SDS011;43493;53.098;6.064;2023-03-01T11:44:40;14.63;;;11.02;;
57663;SDS011;43493;53.098;6.064;2023-03-01T12:01:13;20.90;;;12.25;;
57663;SDS011;43493;53.098;6.064;2023-03-01T12:04:03;15.30;;;11.93;;
57663;SDS011;43493;53.098;6.064;2023-03-01T12:09:58;17.05;;;11.95;;
57663;SDS011;43493;53.098;6.064;2023-03-01T12:21:02;15.85;;;11.38;;
57663;SDS011;43493;53.098;6.064;2023-03-01T12:27:05;16.15;;;11.68;;
57663;SDS011;43493;53.098;6.064;2023-03-01T12:38:08;21.75;;;13.07;;
57663;SDS011;43493;53.098;6.064;2023-03-01T12:40:43;19.83;;;12.70;;
57663;SDS011;43493;53.098;6.064;2023-03-01T12:43:33;25.98;;;13.55;;
57663;SDS011;43493;53.098;6.064;2023-03-01T12:54:36;19.52;;;13.50;;
57663;SDS011;43493;53.098;6.064;2023-03-01T12:57:11;16.80;;;13.07;;
57663;SDS011;43493;53.098;6.064;2023-03-01T13:02:14;15.75;;;12.30;;
57663;SDS011;43493;53.098;6.064;2023-03-01T13:04:59;17.77;;;11.60;;
57663;SDS011;43493;53.098;6.064;2023-03-01T13:10:52;16.35;;;12.02;;
57663;SDS011;43493;53.098;6.064;2023-03-01T13:13:24;15.68;;;11.98;;
57663;SDS011;43493;53.098;6.064;2023-03-01T13:15:51;19.77;;;13.52;;
57663;SDS011;43493;53.098;6.064;2023-03-01T13:20:45;21.20;;;13.18;;
57663;SDS011;43493;53.098;6.064;2023-03-01T13:33:48;15.68;;;11.60;;
57663;SDS011;43493;53.098;6.064;2023-03-01T13:52:36;15.57;;;12.60;;
57663;SDS011;43493;53.098;6.064;2023-03-01T13:57:39;16.65;;;12.88;;
57663;SDS011;43493;53.098;6.064;2023-03-01T14:05:30;16.65;;;12.40;;
57663;SDS011;43493;53.098;6.064;2023-03-01T14:07:57;17.38;;;11.88;;
57663;SDS011;43493;53.098;6.064;2023-03-01T14:10:22;16.50;;;12.20;;
57663;SDS011;43493;53.098;6.064;2023-03-01T14:16:05;16.48;;;12.38;;
57663;SDS011;43493;53.098;6.064;2023-03-01T14:21:30;17.05;;;13.38;;
57663;SDS011;43493;53.098;6.064;2023-03-01T14:23:57;16.50;;;12.00;;
57663;SDS011;43493;53.098;6.064;2023-03-01T14:26:23;15.30;;;10.93;;
57663;SDS011;43493;53.098;6.064;2023-03-01T14:28:49;15.00;;;11.60;;
57663;SDS011;43493;53.098;6.064;2023-03-01T14:31:30;16.55;;;11.43;;
57663;SDS011;43493;53.098;6.064;2023-03-01T14:33:59;15.00;;;12.07;;
57663;SDS011;43493;53.098;6.064;2023-03-01T14:36:26;16.70;;;12.70;;
57663;SDS011;43493;53.098;6.064;2023-03-01T14:38:53;15.38;;;11.88;;
57663;SDS011;43493;53.098;6.064;2023-03-01T14:41:23;16.70;;;11.48;;
57663;SDS011;43493;53.098;6.064;2023-03-01T14:43:53;16.30;;;10.90;;
57663;SDS011;43493;53.098;6.064;2023-03-01T14:46:24;14.18;;;10.82;;
57663;SDS011;43493;53.098;6.064;2023-03-01T14:49:09;13.43;;;10.27;;
57663;SDS011;43493;53.098;6.064;2023-03-01T14:51:50;13.30;;;10.88;;
57663;SDS011;43493;53.098;6.064;2023-03-01T14:54:28;12.63;;;9.93;;
57663;SDS011;43493;53.098;6.064;2023-03-01T14:57:12;13.70;;;9.35;;
57663;SDS011;43493;53.098;6.064;2023-03-01T14:59:51;14.13;;;10.20;;
57663;SDS011;43493;53.098;6.064;2023-03-01T15:02:20;13.48;;;10.63;;
57663;SDS011;43493;53.098;6.064;2023-03-01T15:04:51;14.05;;;11.13;;
57663;SDS011;43493;53.098;6.064;2023-03-01T15:07:21;12.80;;;9.95;;
57663;SDS011;43493;53.098;6.064;2023-03-01T15:09:51;12.88;;;9.60;;
57663;SDS011;43493;53.098;6.064;2023-03-01T15:12:25;15.53;;;10.30;;
57663;SDS011;43493;53.098;6.064;2023-03-01T15:14:57;13.48;;;10.18;;
57663;SDS011;43493;53.098;6.064;2023-03-01T15:17:30;14.05;;;10.68;;
57663;SDS011;43493;53.098;6.064;2023-03-01T15:20:00;14.60;;;10.98;;
57663;SDS011;43493;53.098;6.064;2023-03-01T15:22:29;14.57;;;10.93;;
57663;SDS011;43493;53.098;6.064;2023-03-01T15:24:55;13.52;;;10.23;;
57663;SDS011;43493;53.098;6.064;2023-03-01T15:27:22;15.40;;;11.27;;
57663;SDS011;43493;53.098;6.064;2023-03-01T15:29:57;16.83;;;11.15;;
57663;SDS011;43493;53.098;6.064;2023-03-01T15:32:27;15.38;;;11.23;;
57663;SDS011;43493;53.098;6.064;2023-03-01T15:35:33;14.07;;;10.38;;
57663;SDS011;43493;53.098;6.064;2023-03-01T15:40:57;17.13;;;11.93;;
57663;SDS011;43493;53.098;6.064;2023-03-01T15:46:23;14.20;;;11.23;;
57663;SDS011;43493;53.098;6.064;2023-03-01T15:48:57;13.02;;;9.57;;
57663;SDS011;43493;53.098;6.064;2023-03-01T15:51:32;13.65;;;10.32;;
57663;SDS011;43493;53.098;6.064;2023-03-01T15:54:01;13.57;;;10.25;;
57663;SDS011;43493;53.098;6.064;2023-03-01T15:56:29;15.20;;;10.57;;
57663;SDS011;43493;53.098;6.064;2023-03-01T15:58:59;14.13;;;10.90;;
57663;SDS011;43493;53.098;6.064;2023-03-01T16:01:27;13.45;;;10.70;;
57663;SDS011;43493;53.098;6.064;2023-03-01T16:03:53;15.50;;;11.07;;
57663;SDS011;43493;53.098;6.064;2023-03-01T16:06:19;20.27;;;14.63;;
57663;SDS011;43493;53.098;6.064;2023-03-01T16:08:44;14.63;;;11.80;;
57663;SDS011;43493;53.098;6.064;2023-03-01T16:11:15;15.60;;;11.27;;
57663;SDS011;43493;53.098;6.064;2023-03-01T16:13:42;15.05;;;11.63;;
57663;SDS011;43493;53.098;6.064;2023-03-01T16:16:12;17.42;;;12.30;;
57663;SDS011;43493;53.098;6.064;2023-03-01T16:18:44;16.05;;;12.18;;
57663;SDS011;43493;53.098;6.064;2023-03-01T16:21:20;15.73;;;12.07;;
57663;SDS011;43493;53.098;6.064;2023-03-01T16:23:50;17.48;;;13.43;;
57663;SDS011;43493;53.098;6.064;2023-03-01T16:26:16;20.95;;;14.77;;
57663;SDS011;43493;53.098;6.064;2023-03-01T16:28:44;16.65;;;13.70;;
57663;SDS011;43493;53.098;6.064;2023-03-01T16:31:10;19.88;;;13.35;;
57663;SDS011;43493;53.098;6.064;2023-03-01T16:33:39;15.98;;;12.07;;
57663;SDS011;43493;53.098;6.064;2023-03-01T16:36:09;17.63;;;13.87;;
57663;SDS011;43493;53.098;6.064;2023-03-01T16:38:36;17.67;;;14.48;;
57663;SDS011;43493;53.098;6.064;2023-03-01T16:41:03;17.05;;;13.13;;
57663;SDS011;43493;53.098;6.064;2023-03-01T16:43:30;17.25;;;12.07;;
57663;SDS011;43493;53.098;6.064;2023-03-01T16:45:56;17.23;;;12.88;;
57663;SDS011;43493;53.098;6.064;2023-03-01T16:48:23;17.88;;;12.93;;
57663;SDS011;43493;53.098;6.064;2023-03-01T16:50:56;16.77;;;12.52;;